Time;durP1;ratioP1;P1;durP2;ratioP2;P2;SDS_P1;SDS_P2;PMS_P1;PMS_P2;Temp;Humidity;BMP_temperature;BMP_pressure;BME280_temperature;BME280_humidity;BME280_pressure;Samples;Min_cycle;Max_cycle;Signal;HPM_P1;HPM_P2
2022/01/28 14:52:57;;;;;;;0.70;0.70;;;22.50;99.90;;;;;;5063137;28;20398;-40
2022/01/28 14:55:25;;;;;;;;;;;21.80;99.90;;;;;;5069034;28;20047;-43
2022/01/28 14:57:53;;;;;;;0.50;0.50;;;21.50;99.90;;;;;;5054240;28;19936;-46
2022/01/28 15:00:21;;;;;;;4.88;1.70;;;21.40;99.90;;;;;;5048371;28;20433;-44
2022/01/28 15:02:48;;;;;;;0.40;0.40;;;21.30;99.90;;;;;;5054873;28;20622;-38
2022/01/28 15:05:16;;;;;;;0.60;0.60;;;21.20;99.90;;;;;;5054354;28;20047;-44
2022/01/28 15:07:43;;;;;;;0.60;0.60;;;21.20;99.90;;;;;;5047598;28;20125;-39
2022/01/28 15:10:11;;;;;;;0.43;0.43;;;21.20;99.90;;;;;;5051005;28;20076;-41
2022/01/28 15:12:40;;;;;;;0.30;0.30;;;21.20;99.90;;;;;;5057732;28;20056;-38
2022/01/28 15:15:07;;;;;;;0.55;0.55;;;21.10;99.90;;;;;;5050686;28;20041;-37
2022/01/28 15:17:35;;;;;;;0.88;0.88;;;21.20;99.90;;;;;;5061953;28;20041;-40
2022/01/28 15:20:03;;;;;;;0.40;0.40;;;21.10;99.90;;;;;;5056100;28;20080;-39
2022/01/28 15:22:30;;;;;;;0.40;0.40;;;21.20;99.90;;;;;;5052962;28;20056;-39
2022/01/28 15:24:57;;;;;;;1.85;1.05;;;21.20;99.90;;;;;;5049073;28;20539;-39
2022/01/28 15:27:26;;;;;;;0.50;0.50;;;21.20;99.90;;;;;;5056963;28;21095;-42
2022/01/28 15:36:00;;;;;;;1.80;0.95;;;21.30;99.90;;;;;;5051972;28;20052;-41
2022/01/28 15:38:34;;;;;;;0.88;0.88;;;21.30;99.90;;;;;;5055178;28;20051;-41
2022/01/28 15:41:07;;;;;;;0.30;0.30;;;21.20;99.90;;;;;;5051613;28;20057;-41
2022/01/28 15:43:35;;;;;;;2.38;0.95;;;21.10;99.90;;;;;;5052432;28;20053;-39
2022/01/28 15:46:03;;;;;;;0.57;0.52;;;21.10;99.90;;;;;;5037345;28;20049;-37
2022/01/28 15:48:31;;;;;;;0.70;0.70;;;21.10;99.90;;;;;;5052405;28;20457;-37
2022/01/28 15:50:59;;;;;;;1.00;0.88;;;21.00;99.90;;;;;;5060212;28;20792;-38
2022/01/28 15:53:27;;;;;;;0.65;0.65;;;20.90;99.90;;;;;;5059133;28;20052;-38
2022/01/28 15:55:54;;;;;;;5.07;2.05;;;20.90;99.90;;;;;;5063764;28;20048;-39
2022/01/28 15:58:22;;;;;;;8.50;1.33;;;21.00;99.90;;;;;;5060479;28;20096;-39
2022/01/28 16:00:49;;;;;;;0.38;0.38;;;21.20;99.90;;;;;;5057537;28;20049;-40
2022/01/28 16:03:17;;;;;;;0.40;0.40;;;21.30;99.90;;;;;;5039525;28;20045;-45
2022/01/28 16:05:45;;;;;;;0.38;0.38;;;21.20;99.90;;;;;;5037704;28;20060;-42
2022/01/28 16:08:13;;;;;;;0.45;0.45;;;21.20;99.90;;;;;;5049593;28;20045;-38
2022/01/28 16:10:50;;;;;;;1.02;0.95;;;21.20;99.90;;;;;;5043269;28;20059;-37
2022/01/28 16:13:39;;;;;;;1.35;0.95;;;21.20;99.90;;;;;;5036985;28;20045;-42
2022/01/28 16:18:38;;;;;;;0.60;0.60;;;21.30;99.90;;;;;;5041122;28;20045;-42
2022/01/28 16:21:06;;;;;;;0.68;0.68;;;21.30;99.90;;;;;;5037140;28;20048;-38
2022/01/28 16:23:33;;;;;;;0.30;0.30;;;21.40;99.90;;;;;;5043840;28;20502;-37
2022/01/28 16:26:02;;;;;;;0.60;0.60;;;21.40;99.90;;;;;;5038329;28;20052;-40
2022/01/28 16:28:29;;;;;;;1.75;1.23;;;21.40;99.90;;;;;;5038911;28;20047;-41
2022/01/28 16:30:57;;;;;;;1.65;1.35;;;21.40;99.90;;;;;;5035888;28;20044;-40
2022/01/28 16:33:24;;;;;;;12.38;4.82;;;21.40;99.90;;;;;;5042419;28;20092;-40
2022/01/28 16:35:52;;;;;;;3.47;1.92;;;21.10;99.90;;;;;;5040650;28;20434;-40
2022/01/28 16:38:20;;;;;;;10.23;3.00;;;20.90;99.90;;;;;;5048143;28;20499;-39
2022/01/28 16:40:47;;;;;;;;;;;21.00;99.90;;;;;;5045172;28;20513;-38
